Time;durP1;ratioP1;P1;durP2;ratioP2;P2;SDS_P1;SDS_P2;PMS_P1;PMS_P2;Temp;Humidity;BMP_temperature;BMP_pressure;BME280_temperature;BME280_humidity;BME280_pressure;Samples;Min_cycle;Max_cycle;Signal;HPM_P1;HPM_P2
2022/08/26 00:01:21;;;;;;;4.30;3.90;;;;;;;21.36;56.72;95399.91;5054669;28;20185;-82
2022/08/26 00:03:46;;;;;;;4.70;4.18;;;;;;;21.31;56.68;95397.13;5062327;28;20196;-83
2022/08/26 00:06:12;;;;;;;4.55;4.15;;;;;;;21.36;56.66;95396.47;5060945;28;20569;-81
2022/08/26 00:08:38;;;;;;;4.63;4.22;;;;;;;21.32;56.40;95398.75;5037337;28;20568;-83
2022/08/26 00:11:03;;;;;;;4.20;3.80;;;;;;;21.31;56.40;95391.84;5035631;28;20216;-81
2022/08/26 00:13:29;;;;;;;4.40;3.90;;;;;;;21.27;56.67;95395.94;5072569;28;20300;-81
2022/08/26 00:15:54;;;;;;;9.43;4.63;;;;;;;21.23;56.56;95391.28;5036700;28;20224;-80
2022/08/26 00:18:19;;;;;;;4.32;3.95;;;;;;;21.18;56.84;95394.56;5037457;28;20212;-80
2022/08/26 00:20:45;;;;;;;4.43;3.78;;;;;;;21.12;56.55;95393.63;5035987;28;20526;-80
2022/08/26 00:23:10;;;;;;;4.40;4.00;;;;;;;21.04;57.40;95399.19;5053446;28;20200;-80
2022/08/26 00:25:36;;;;;;;5.40;3.97;;;;;;;20.99;57.32;95393.72;5053363;28;20704;-81
2022/08/26 00:28:02;;;;;;;4.00;3.70;;;;;;;20.92;57.12;95392.97;5053808;28;20546;-82
2022/08/26 00:30:29;;;;;;;4.05;3.75;;;;;;;20.87;57.72;95395.47;5036884;28;20189;-81
2022/08/26 00:32:55;;;;;;;4.30;3.95;;;;;;;20.79;58.15;95391.25;5071821;28;20181;-81
2022/08/26 00:35:21;;;;;;;4.28;3.78;;;;;;;20.74;58.31;95387.63;5036596;28;20208;-80
2022/08/26 00:37:46;;;;;;;3.95;3.65;;;;;;;20.71;58.20;95391.50;5053687;28;20211;-80
2022/08/26 00:40:20;;;;;;;4.13;3.83;;;;;;;20.68;58.11;95389.31;5053863;28;20181;-81
2022/08/26 00:42:45;;;;;;;4.35;4.05;;;;;;;20.59;58.56;95393.22;5059337;28;20195;-81
2022/08/26 00:45:11;;;;;;;4.35;3.90;;;;;;;20.53;58.79;95389.59;5044137;28;20635;-80
2022/08/26 00:47:44;;;;;;;4.30;4.00;;;;;;;20.53;59.49;95389.59;5033848;28;20684;-82
2022/08/26 00:50:14;;;;;;;5.00;4.60;;;;;;;20.47;59.78;95384.38;5043898;28;20189;-82
2022/08/26 00:52:40;;;;;;;5.30;4.15;;;;;;;20.37;59.99;95385.59;5035340;28;20190;-81
2022/08/26 00:55:09;;;;;;;4.75;4.35;;;;;;;20.30;60.35;95384.03;5053271;28;20315;-81
2022/08/26 00:57:35;;;;;;;4.10;3.80;;;;;;;20.29;60.76;95390.31;5031184;28;20519;-81
2022/08/26 01:00:04;;;;;;;6.47;4.00;;;;;;;20.26;60.81;95388.13;5036783;28;20250;-81
2022/08/26 01:02:29;;;;;;;4.38;4.00;;;;;;;20.31;60.47;95388.28;5053340;28;20570;-80
2022/08/26 01:04:58;;;;;;;4.63;4.22;;;;;;;20.40;60.71;95394.91;5053113;28;20193;-82
2022/08/26 01:07:25;;;;;;;6.05;4.22;;;;;;;20.43;60.68;95391.91;5036943;28;20192;-81
2022/08/26 01:09:50;;;;;;;4.43;4.13;;;;;;;20.37;60.68;95395.34;5042267;28;20185;-80
2022/08/26 01:12:15;;;;;;;4.50;4.10;;;;;;;20.41;60.66;95387.81;5059983;28;20207;-81
2022/08/26 01:14:41;;;;;;;4.38;3.97;;;;;;;20.34;60.95;95387.88;5054750;28;20204;-79
2022/08/26 01:17:07;;;;;;;6.15;4.45;;;;;;;20.23;60.91;95386.72;5073520;28;20279;-80
2022/08/26 01:19:48;;;;;;;4.63;4.32;;;;;;;20.20;60.67;95387.13;5078706;28;20320;-80
2022/08/26 01:22:27;;;;;;;5.72;4.88;;;;;;;20.14;61.32;95389.78;5059373;28;20173;-80
2022/08/26 01:24:52;;;;;;;5.70;4.53;;;;;;;20.11;61.24;95387.59;5056289;28;20184;-80
2022/08/26 01:27:19;;;;;;;4.50;4.10;;;;;;;20.11;61.57;95379.69;5060721;28;20221;-79
2022/08/26 01:29:47;;;;;;;4.70;4.30;;;;;;;20.13;61.71;95390.81;5074563;28;20199;-80
2022/08/26 01:32:17;;;;;;;7.88;4.55;;;;;;;20.07;61.92;95385.38;5041365;28;20184;-81
2022/08/26 01:34:42;;;;;;;4.75;4.25;;;;;;;20.01;62.25;95391.47;5058563;28;20209;-80
2022/08/26 01:37:14;;;;;;;4.57;4.15;;;;;;;19.97;62.09;95389.50;5059017;28;20703;-82
2022/08/26 01:39:40;;;;;;;4.70;4.15;;;;;;;19.93;62.14;95386.44;5041368;28;20227;-80
2022/08/26 01:42:09;;;;;;;5.80;5.20;;;;;;;19.89;62.30;95393.16;5041307;28;20192;-81
2022/08/26 01:44:39;;;;;;;4.90;4.50;;;;;;;19.89;62.33;95387.91;5040867;28;20203;-81
2022/08/26 01:47:05;;;;;;;6.05;5.00;;;;;;;19.88;62.54;95388.91;5039868;28;20188;-81
2022/08/26 01:49:31;;;;;;;5.07;4.68;;;;;;;19.89;62.38;95387.09;5057766;28;20241;-80
2022/08/26 01:51:57;;;;;;;4.70;4.30;;;;;;;19.87;62.42;95384.63;5039254;28;20178;-80
2022/08/26 01:54:23;;;;;;;4.90;4.50;;;;;;;19.83;62.51;95388.72;5040381;28;20629;-81
2022/08/26 01:56:50;;;;;;;6.00;4.55;;;;;;;19.81;62.54;95388.13;5040622;28;20758;-81
2022/08/26 01:59:19;;;;;;;5.65;5.00;;;;;;;19.81;62.47;95390.75;5040097;28;20219;-80
2022/08/26 02:01:45;;;;;;;6.82;5.10;;;;;;;19.81;62.09;95388.13;5040270;28;20188;-81
2022/08/26 02:04:27;;;;;;;4.85;4.45;;;;;;;19.81;62.77;95396.03;5039555;28;20177;-80
2022/08/26 02:06:53;;;;;;;6.38;4.38;;;;;;;19.80;62.18;95397.88;5055475;28;20209;-80
2022/08/26 02:09:19;;;;;;;5.15;4.65;;;;;;;19.76;62.52;95398.47;5057328;28;20181;-80
2022/08/26 02:11:45;;;;;;;4.97;4.55;;;;;;;19.77;62.77;95405.34;5047112;28;20231;-81
2022/08/26 02:14:14;;;;;;;4.65;4.25;;;;;;;19.71;63.20;95395.66;5044961;28;20206;-82
2022/08/26 02:16:42;;;;;;;5.22;4.60;;;;;;;19.78;63.15;95393.78;5038332;28;20238;-82
2022/08/26 02:19:10;;;;;;;5.18;4.68;;;;;;;19.84;63.33;95397.44;5056317;28;20707;-81
2022/08/26 02:21:37;;;;;;;5.18;4.72;;;;;;;19.74;63.19;95395.25;5046966;28;20192;-82
2022/08/26 02:24:09;;;;;;;5.47;4.97;;;;;;;19.64;63.60;95394.88;5055627;28;20181;-81
2022/08/26 02:26:34;;;;;;;4.93;4.32;;;;;;;19.64;63.33;95395.69;5039575;28;20201;-80
2022/08/26 02:29:07;;;;;;;4.68;4.38;;;;;;;19.60;63.48;95396.28;5056502;28;20223;-80
2022/08/26 02:31:32;;;;;;;5.22;4.70;;;;;;;19.59;63.70;95397.31;5039210;28;20560;-81
2022/08/26 02:34:09;;;;;;;5.55;5.00;;;;;;;19.61;63.62;95395.28;5055502;28;20193;-80
2022/08/26 02:36:35;;;;;;;5.32;4.93;;;;;;;19.58;63.32;95393.88;5037731;28;20413;-82
2022/08/26 02:39:00;;;;;;;6.57;4.57;;;;;;;19.61;63.33;95395.28;5039050;28;20703;-81
2022/08/26 02:41:25;;;;;;;7.65;4.72;;;;;;;19.60;63.31;95393.66;5055908;28;20196;-82
2022/08/26 02:43:50;;;;;;;5.78;5.28;;;;;;;19.59;63.31;95389.41;5034253;28;20189;-82
2022/08/26 02:46:16;;;;;;;5.18;4.72;;;;;;;19.61;63.48;95388.16;5055420;28;20240;-81
2022/08/26 02:48:41;;;;;;;4.80;4.40;;;;;;;19.63;63.58;95385.34;5064178;28;20241;-81
2022/08/26 02:51:06;;;;;;;4.93;4.43;;;;;;;19.64;63.40;95374.59;5035899;28;20194;-82
2022/08/26 02:53:32;;;;;;;3.95;3.65;;;;;;;19.70;63.56;95379.06;5055112;28;20192;-81
2022/08/26 02:55:57;;;;;;;5.45;4.93;;;;;;;19.75;63.00;95375.78;5055428;28;20612;-81
2022/08/26 02:58:23;;;;;;;4.65;4.13;;;;;;;19.77;63.06;95379.81;5058258;28;20260;-82
2022/08/26 03:00:48;;;;;;;5.18;4.72;;;;;;;19.77;63.25;95373.75;5064257;28;20185;-81
2022/08/26 03:03:14;;;;;;;4.40;4.10;;;;;;;19.82;63.22;95373.13;5058416;28;20242;-83
2022/08/26 03:05:40;;;;;;;5.25;4.85;;;;;;;19.82;62.95;95375.75;5056830;28;20259;-82
2022/08/26 03:08:05;;;;;;;6.22;4.60;;;;;;;19.86;62.95;95377.75;5057693;28;20189;-82
2022/08/26 03:10:31;;;;;;;4.53;4.20;;;;;;;19.87;63.35;95371.47;5065051;28;20649;-82
2022/08/26 03:12:57;;;;;;;4.95;4.55;;;;;;;19.89;63.02;95372.09;5057052;28;20196;-83
2022/08/26 03:15:23;;;;;;;5.25;4.70;;;;;;;19.87;63.04;95371.47;5055934;28;20220;-81
2022/08/26 03:17:48;;;;;;;4.45;4.07;;;;;;;19.86;62.92;95372.47;5056574;28;20188;-82
2022/08/26 03:20:14;;;;;;;5.82;4.50;;;;;;;19.85;63.14;95370.06;5039574;28;20538;-82
2022/08/26 03:22:40;;;;;;;5.00;4.47;;;;;;;19.84;63.17;95373.72;5046923;28;20181;-81
2022/08/26 03:25:08;;;;;;;5.90;4.80;;;;;;;19.80;63.52;95370.72;5055423;28;20393;-81
2022/08/26 03:27:33;;;;;;;5.10;4.60;;;;;;;19.82;62.91;95376.56;5055536;28;20264;-82
2022/08/26 03:32:44;;;;;;;5.28;4.88;;;;;;;19.69;63.24;95379.25;5057595;28;20239;-81
2022/08/26 03:35:09;;;;;;;4.90;4.50;;;;;;;19.70;63.36;95372.94;5055524;28;20201;-83
2022/08/26 03:37:35;;;;;;;4.97;4.53;;;;;;;19.68;63.47;95370.53;5034228;28;20188;-81
2022/08/26 03:40:00;;;;;;;4.90;4.57;;;;;;;19.71;63.95;95372.75;5054659;28;20209;-82
2022/08/26 03:42:25;;;;;;;5.60;5.03;;;;;;;19.70;63.99;95370.31;5038787;28;20184;-81
2022/08/26 03:44:51;;;;;;;6.03;4.88;;;;;;;19.70;63.82;95370.31;5054282;28;20192;-80
2022/08/26 03:47:17;;;;;;;5.13;4.63;;;;;;;19.67;63.80;95362.84;5038930;28;20195;-80
2022/08/26 03:49:42;;;;;;;5.07;4.68;;;;;;;19.64;64.01;95371.97;5041375;28;20185;-80
2022/08/26 03:52:07;;;;;;;5.22;4.72;;;;;;;19.60;64.16;95356.78;5036196;28;20188;-80
2022/08/26 03:54:33;;;;;;;5.90;5.15;;;;;;;19.57;63.92;95362.47;5033828;28;20225;-81
2022/08/26 03:56:59;;;;;;;5.00;4.60;;;;;;;19.53;64.38;95368.13;5037026;28;20211;-81
2022/08/26 03:59:24;;;;;;;5.47;4.85;;;;;;;19.50;64.52;95363.25;5054310;28;20548;-80
2022/08/26 04:01:49;;;;;;;5.03;4.55;;;;;;;19.48;65.10;95367.13;5054459;28;20197;-81
2022/08/26 04:04:15;;;;;;;4.80;4.40;;;;;;;19.46;64.42;95361.25;5037232;28;20212;-80
2022/08/26 04:06:42;;;;;;;6.20;5.00;;;;;;;19.42;64.69;95363.47;5054328;28;20211;-80
2022/08/26 04:09:10;;;;;;;5.15;4.65;;;;;;;19.37;64.92;95360.69;5037498;28;20177;-81
2022/08/26 04:11:38;;;;;;;5.10;4.70;;;;;;;19.38;65.24;95364.94;5030113;28;20185;-82
2022/08/26 04:14:05;;;;;;;5.18;4.75;;;;;;;19.37;65.07;95362.50;5054184;28;20199;-81
2022/08/26 04:16:30;;;;;;;5.05;4.55;;;;;;;19.35;65.05;95367.19;5054079;28;20319;-80
2022/08/26 04:18:56;;;;;;;5.20;4.70;;;;;;;19.31;65.44;95366.75;5037105;28;20297;-81
2022/08/26 04:21:22;;;;;;;5.78;5.22;;;;;;;19.31;66.24;95364.13;5054061;28;20204;-80
2022/08/26 04:23:48;;;;;;;5.38;4.95;;;;;;;19.31;66.01;95356.22;5053982;28;20242;-81
2022/08/26 04:26:14;;;;;;;5.10;4.70;;;;;;;19.32;65.56;95363.09;5032817;28;20205;-81
2022/08/26 04:28:40;;;;;;;5.72;5.20;;;;;;;19.28;66.06;95361.91;5037836;28;20188;-81
2022/08/26 04:31:10;;;;;;;6.57;5.07;;;;;;;19.29;65.93;95360.09;5036169;28;20272;-79
2022/08/26 04:33:35;;;;;;;5.32;4.82;;;;;;;19.29;66.02;95358.25;5036497;28;20205;-81
2022/08/26 04:36:04;;;;;;;5.88;4.70;;;;;;;19.33;65.51;95358.66;5062133;28;20228;-81
2022/08/26 04:38:29;;;;;;;6.82;4.55;;;;;;;19.35;65.52;95360.09;5061912;28;20205;-83
2022/08/26 04:40:55;;;;;;;6.93;4.90;;;;;;;19.37;65.17;95363.31;5054413;28;20227;-83
2022/08/26 04:43:20;;;;;;;9.68;4.53;;;;;;;19.41;64.90;95359.25;5041212;28;20189;-83
2022/08/26 04:45:45;;;;;;;5.10;4.70;;;;;;;19.42;64.72;95352.94;5056957;28;20617;-83
2022/08/26 04:48:11;;;;;;;5.28;4.88;;;;;;;19.46;64.86;95356.00;5048438;28;20177;-82
2022/08/26 04:50:36;;;;;;;5.65;4.40;;;;;;;19.47;64.91;95357.63;5080060;28;20196;-82
2022/08/26 04:53:03;;;;;;;4.95;4.55;;;;;;;19.53;65.04;95352.34;5081175;28;20162;-82
2022/08/26 04:55:28;;;;;;;5.05;4.53;;;;;;;19.56;64.26;95360.81;5079437;28;20209;-83
2022/08/26 04:57:53;;;;;;;4.95;4.22;;;;;;;19.93;63.90;95362.72;5077375;28;20188;-82
2022/08/26 05:00:19;;;;;;;5.15;4.65;;;;;;;20.76;61.83;95367.09;5058934;28;20185;-83
2022/08/26 05:02:45;;;;;;;5.03;4.53;;;;;;;21.31;59.58;95367.28;5071615;28;20672;-83
2022/08/26 05:05:10;;;;;;;6.13;4.63;;;;;;;21.46;57.56;95367.72;5058434;28;20228;-83
2022/08/26 05:07:35;;;;;;;6.53;4.60;;;;;;;21.25;57.61;95378.69;5041779;28;20569;-82
2022/08/26 05:10:02;;;;;;;6.75;4.70;;;;;;;20.83;59.77;95378.41;5057835;28;20185;-84
2022/08/26 05:12:28;;;;;;;5.38;4.82;;;;;;;20.83;59.88;95376.59;5055415;28;20529;-81
2022/08/26 05:15:18;;;;;;;;;;;;;;;;;;;;;
2022/08/26 05:18:30;;;;;;;6.03;4.32;;;;;;;20.41;61.02;95375.47;5042857;28;20182;-86
2022/08/26 05:20:56;;;;;;;4.57;4.18;;;;;;;20.29;61.20;95379.78;5052067;28;20193;-79
2022/08/26 05:23:23;;;;;;;5.40;4.90;;;;;;;20.18;62.01;95376.00;5055116;28;20181;-83
2022/08/26 05:25:49;;;;;;;5.85;4.88;;;;;;;20.07;62.90;95380.09;5053220;28;20204;-82
2022/08/26 05:28:16;;;;;;;5.40;4.45;;;;;;;20.05;62.88;95376.88;5052075;28;20177;-83
2022/08/26 05:30:42;;;;;;;4.82;4.25;;;;;;;20.00;62.94;95381.97;5070799;28;20181;-83
2022/08/26 05:33:08;;;;;;;4.68;4.28;;;;;;;19.98;62.83;95391.09;5033468;28;20272;-82
2022/08/26 05:35:34;;;;;;;5.00;4.60;;;;;;;19.99;62.80;95393.53;5034944;28;20200;-83
2022/08/26 05:38:00;;;;;;;5.28;4.78;;;;;;;20.01;63.15;95385.41;5028527;28;20265;-83
2022/08/26 05:40:27;;;;;;;5.38;4.95;;;;;;;20.06;63.11;95394.31;5034391;28;20215;-82
2022/08/26 05:42:53;;;;;;;6.03;4.47;;;;;;;20.15;62.84;95397.50;5052480;28;20211;-82
2022/08/26 05:45:19;;;;;;;4.90;4.50;;;;;;;20.23;62.36;95393.78;5051767;28;20204;-83
2022/08/26 05:47:49;;;;;;;5.75;4.50;;;;;;;20.33;61.81;95396.81;5027724;28;20181;-83
2022/08/26 05:50:20;;;;;;;5.68;4.70;;;;;;;20.48;60.96;95404.44;5053805;28;20185;-83
2022/08/26 05:52:45;;;;;;;5.70;5.20;;;;;;;20.68;60.64;95401.69;5072264;28;20185;-83
2022/08/26 05:55:11;;;;;;;4.75;4.35;;;;;;;20.81;60.08;95402.41;5071758;28;20236;-82
2022/08/26 05:57:36;;;;;;;5.35;4.80;;;;;;;20.96;59.50;95406.56;5053004;28;20185;-81
2022/08/26 06:00:03;;;;;;;6.32;4.78;;;;;;;20.88;60.07;95407.63;5069713;28;20615;-80
2022/08/26 06:02:28;;;;;;;5.57;5.07;;;;;;;20.96;59.50;95406.56;5071367;28;20603;-79
2022/08/26 06:04:54;;;;;;;5.15;4.65;;;;;;;21.06;59.24;95410.31;5035938;28;20181;-81
2022/08/26 06:08:09;;;;;;;5.05;4.45;;;;;;;21.20;58.72;95411.00;5051072;28;20196;-79
2022/08/26 06:10:05;;;;;;;5.25;4.85;;;;;;;21.35;58.70;95421.28;5046750;28;20596;-81
2022/08/26 06:12:31;;;;;;;5.00;4.60;;;;;;;21.44;57.94;95412.03;5030606;28;20231;-81
2022/08/26 06:14:56;;;;;;;6.47;5.00;;;;;;;21.56;57.84;95415.59;5051255;28;20256;-82
2022/08/26 06:17:21;;;;;;;5.20;4.70;;;;;;;21.65;57.02;95413.47;5052368;28;20261;-80
2022/08/26 06:19:47;;;;;;;5.07;4.57;;;;;;;21.73;56.82;95411.34;5072350;28;20215;-82
2022/08/26 06:25:36;;;;;;;4.85;4.45;;;;;;;21.85;56.48;95415.88;5074300;28;20188;-82
2022/08/26 06:27:41;;;;;;;5.10;4.70;;;;;;;22.09;55.41;95412.38;5059852;28;20203;-82
2022/08/26 06:30:08;;;;;;;4.97;4.57;;;;;;;22.12;55.25;95411.94;5040882;28;20205;-82
2022/08/26 06:32:34;;;;;;;5.43;4.90;;;;;;;22.24;55.29;95412.78;5076474;28;20185;-82
2022/08/26 06:34:59;;;;;;;4.90;4.50;;;;;;;22.40;54.77;95413.19;5057479;28;20270;-82
2022/08/26 06:37:24;;;;;;;6.30;4.65;;;;;;;22.42;54.44;95419.88;5041155;28;20181;-82
2022/08/26 06:39:50;;;;;;;5.38;4.10;;;;;;;22.45;54.46;95422.09;5040386;28;20296;-80
2022/08/26 06:42:15;;;;;;;4.78;4.38;;;;;;;22.50;53.75;95421.41;5040514;28;20185;-82
2022/08/26 06:44:40;;;;;;;5.15;3.60;;;;;;;22.71;53.72;95420.91;5039545;28;20250;-80
2022/08/26 06:47:06;;;;;;;5.60;4.57;;;;;;;22.80;52.82;95430.13;5033668;28;20181;-81
2022/08/26 06:49:31;;;;;;;6.13;4.60;;;;;;;22.84;52.80;95430.47;5039849;28;20268;-80
2022/08/26 06:51:56;;;;;;;5.15;4.00;;;;;;;22.91;52.50;95423.28;5039590;28;20191;-80
2022/08/26 06:54:22;;;;;;;5.50;4.88;;;;;;;22.97;52.39;95434.78;5038596;28;20613;-81
2022/08/26 06:56:48;;;;;;;6.78;4.63;;;;;;;23.04;51.88;95431.00;5057615;28;20197;-82
2022/08/26 06:59:16;;;;;;;4.53;4.13;;;;;;;23.28;51.45;95428.38;5056372;28;20204;-83
2022/08/26 07:01:45;;;;;;;5.85;4.70;;;;;;;23.28;51.47;95431.84;5034982;28;20182;-80
2022/08/26 07:04:13;;;;;;;4.78;4.38;;;;;;;23.53;50.72;95434.28;5038085;28;20268;-80
2022/08/26 07:06:40;;;;;;;7.18;4.25;;;;;;;23.85;49.55;95437.38;5055495;28;20715;-80
2022/08/26 07:09:06;;;;;;;4.82;4.30;;;;;;;24.01;48.37;95433.19;5038063;28;20668;-82
2022/08/26 07:11:32;;;;;;;8.13;4.45;;;;;;;24.13;48.02;95427.88;5056735;28;20234;-81
2022/08/26 07:13:59;;;;;;;7.07;4.40;;;;;;;24.45;47.68;95429.06;5055656;28;20177;-83
2022/08/26 07:16:26;;;;;;;5.60;4.10;;;;;;;24.58;47.56;95442.06;5034201;28;20212;-81
2022/08/26 07:18:52;;;;;;;5.35;4.00;;;;;;;24.63;47.48;95430.69;5054839;28;20205;-80
2022/08/26 07:21:27;;;;;;;4.35;4.05;;;;;;;24.75;47.33;95438.63;5033574;28;20641;-80
2022/08/26 07:23:53;;;;;;;6.45;4.40;;;;;;;24.98;46.47;95437.69;5054990;28;20191;-80
2022/08/26 07:26:23;;;;;;;4.43;3.95;;;;;;;25.04;46.03;95440.22;5054899;28;20231;-80
2022/08/26 07:28:51;;;;;;;4.43;4.03;;;;;;;25.29;45.48;95439.03;5054843;28;20268;-80
2022/08/26 07:31:18;;;;;;;4.78;4.32;;;;;;;25.18;45.50;95442.56;5054253;28;20239;-81
2022/08/26 07:33:43;;;;;;;6.40;4.25;;;;;;;25.25;46.15;95445.84;5038674;28;20181;-80
2022/08/26 07:36:10;;;;;;;5.15;4.75;;;;;;;25.14;46.90;95443.03;5038867;28;20269;-81
2022/08/26 07:38:37;;;;;;;6.13;5.00;;;;;;;24.88;47.27;95443.63;5044030;28;20726;-80
2022/08/26 07:41:03;;;;;;;5.13;4.65;;;;;;;24.80;47.99;95441.34;5038449;28;20189;-79
2022/08/26 07:43:28;;;;;;;5.55;5.13;;;;;;;24.52;48.44;95440.34;5056227;28;20667;-80
2022/08/26 07:45:54;;;;;;;4.97;4.45;;;;;;;24.52;48.42;95444.84;5051889;28;20220;-78
2022/08/26 07:48:19;;;;;;;5.65;4.88;;;;;;;24.41;48.26;95451.81;5072567;28;20199;-80
2022/08/26 07:50:45;;;;;;;5.45;4.80;;;;;;;24.38;48.58;95440.84;5073187;28;20204;-80
2022/08/26 07:53:11;;;;;;;4.90;4.55;;;;;;;24.37;48.38;95448.00;5055544;28;20656;-81
2022/08/26 07:55:37;;;;;;;6.70;4.70;;;;;;;24.38;48.28;95448.81;5055320;28;20347;-81
2022/08/26 07:58:04;;;;;;;4.80;4.30;;;;;;;24.63;47.70;95445.81;5038831;28;20272;-81
2022/08/26 08:00:31;;;;;;;4.68;4.28;;;;;;;24.79;47.05;95450.38;5055359;28;20195;-81
2022/08/26 08:02:57;;;;;;;4.90;4.50;;;;;;;24.83;47.38;95448.88;5055319;28;20230;-81
2022/08/26 08:05:23;;;;;;;6.40;4.72;;;;;;;24.89;46.71;95452.41;5051768;28;20209;-81
2022/08/26 08:07:48;;;;;;;5.07;4.63;;;;;;;24.90;47.00;95451.34;5055102;28;20730;-80
2022/08/26 08:10:17;;;;;;;5.13;4.70;;;;;;;24.95;46.35;95454.09;5038447;28;20552;-80
2022/08/26 08:12:43;;;;;;;4.75;4.35;;;;;;;25.03;46.56;95451.91;5055120;28;20185;-79
2022/08/26 08:15:12;;;;;;;4.90;4.22;;;;;;;25.00;46.92;95455.00;5053395;28;20216;-80
2022/08/26 08:17:37;;;;;;;5.80;4.68;;;;;;;25.27;45.69;95460.53;5032056;28;20194;-82
2022/08/26 08:20:03;;;;;;;4.63;4.13;;;;;;;25.33;45.19;95459.53;5055373;28;20209;-81
2022/08/26 08:22:29;;;;;;;4.90;4.28;;;;;;;25.58;44.91;95461.78;5034857;28;20182;-81
2022/08/26 08:24:54;;;;;;;5.30;4.22;;;;;;;25.64;44.61;95458.16;5049038;28;20235;-81
2022/08/26 08:27:19;;;;;;;4.90;4.40;;;;;;;25.92;43.72;95469.75;5055414;28;20185;-80
2022/08/26 08:29:46;;;;;;;4.40;4.00;;;;;;;25.95;43.37;95459.41;5037804;28;20235;-81
2022/08/26 08:32:12;;;;;;;4.93;4.50;;;;;;;26.37;43.02;95458.06;5053398;28;20808;-81
2022/08/26 08:34:37;;;;;;;5.35;4.80;;;;;;;26.25;42.77;95463.53;5036357;28;20206;-81
2022/08/26 08:37:04;;;;;;;5.53;4.90;;;;;;;26.70;42.52;95454.47;5036709;28;20227;-81
2022/08/26 08:39:30;;;;;;;5.05;4.55;;;;;;;26.88;41.67;95462.13;5037111;28;20239;-79
2022/08/26 08:42:09;;;;;;;6.30;4.68;;;;;;;26.71;41.05;95466.75;5070845;28;20266;-80
2022/08/26 08:44:37;;;;;;;6.25;4.80;;;;;;;26.51;42.27;95464.66;5071616;28;20201;-81
2022/08/26 08:47:16;;;;;;;6.85;5.03;;;;;;;26.17;42.70;95471.94;5038679;28;20193;-80
2022/08/26 08:49:42;;;;;;;6.90;5.07;;;;;;;26.32;42.77;95463.31;5037889;28;20189;-80
2022/08/26 08:52:25;;;;;;;5.68;4.80;;;;;;;26.33;42.69;95464.94;5050459;28;20664;-80
2022/08/26 08:54:50;;;;;;;8.02;4.47;;;;;;;26.32;42.84;95461.47;5050474;28;20774;-81
2022/08/26 08:57:44;;;;;;;5.20;4.72;;;;;;;26.46;42.94;95459.28;5058770;28;20185;-81
2022/08/26 09:00:16;;;;;;;5.82;4.88;;;;;;;26.66;42.27;95459.50;5035427;28;20312;-81
2022/08/26 09:03:00;;;;;;;6.78;5.43;;;;;;;26.41;42.80;95456.53;5053654;28;20643;-80
2022/08/26 09:05:31;;;;;;;6.90;4.88;;;;;;;26.46;42.48;95461.94;5053994;28;20235;-80
2022/08/26 09:08:08;;;;;;;9.57;5.65;;;;;;;26.14;43.33;95462.59;5049097;28;20176;-80
2022/08/26 09:10:43;;;;;;;8.30;4.68;;;;;;;26.68;41.97;95456.56;5053393;28;20687;-80
2022/08/26 09:13:11;;;;;;;8.27;4.45;;;;;;;26.74;41.66;95450.25;5037521;28;20184;-80
2022/08/26 09:15:56;;;;;;;9.40;5.40;;;;;;;26.72;42.00;95457.69;5052671;28;20244;-80
2022/08/26 09:18:40;;;;;;;5.85;5.10;;;;;;;26.72;42.57;95450.50;5071185;28;20574;-80
2022/08/26 09:21:08;;;;;;;5.78;4.95;;;;;;;26.98;41.38;95450.75;5056699;28;20188;-81
2022/08/26 09:23:36;;;;;;;5.80;5.20;;;;;;;27.03;41.61;95448.16;5054216;28;20188;-81
2022/08/26 09:26:26;;;;;;;6.40;5.30;;;;;;;26.74;42.59;95447.59;5036891;28;20201;-81
2022/08/26 09:29:00;;;;;;;8.10;5.43;;;;;;;26.57;43.15;95447.66;5044450;28;20193;-81
2022/08/26 09:31:34;;;;;;;10.15;5.25;;;;;;;27.19;41.70;95447.22;5032931;28;20196;-80
2022/08/26 09:34:21;;;;;;;10.63;5.47;;;;;;;26.61;42.62;95440.00;5036720;28;20189;-80
2022/08/26 09:36:49;;;;;;;8.70;5.68;;;;;;;26.93;42.25;95438.19;5036735;28;20209;-81
2022/08/26 09:39:24;;;;;;;5.57;5.07;;;;;;;27.14;41.52;95430.41;5047816;28;20221;-80
2022/08/26 09:42:09;;;;;;;5.75;5.13;;;;;;;27.28;41.12;95423.56;5071000;28;20487;-81
2022/08/26 09:44:53;;;;;;;10.32;5.93;;;;;;;27.40;41.31;95428.75;5035407;28;20271;-82
2022/08/26 09:47:25;;;;;;;8.75;5.60;;;;;;;27.40;41.85;95423.41;5046703;28;20181;-81
2022/08/26 09:49:59;;;;;;;8.23;5.13;;;;;;;27.75;40.53;95423.66;5053429;28;20213;-81
2022/08/26 09:52:26;;;;;;;6.75;5.40;;;;;;;27.99;40.20;95418.69;5071508;28;20569;-80
2022/08/26 09:55:18;;;;;;;11.13;6.75;;;;;;;27.74;40.00;95416.72;5037795;28;20185;-80
2022/08/26 09:57:54;;;;;;;9.15;5.63;;;;;;;27.90;40.56;95415.72;5054225;28;20188;-81
2022/08/26 10:00:29;;;;;;;7.85;6.30;;;;;;;27.43;41.36;95414.88;5056511;28;20211;-80
2022/08/26 10:02:55;;;;;;;9.60;6.82;;;;;;;28.01;39.94;95405.13;5072914;28;20184;-80
2022/08/26 10:05:38;;;;;;;7.80;6.15;;;;;;;27.96;39.90;95402.41;5050925;28;20207;-81
2022/08/26 10:08:16;;;;;;;7.95;6.38;;;;;;;28.04;40.10;95400.06;5051144;28;20182;-82
2022/08/26 10:10:44;;;;;;;9.35;6.53;;;;;;;27.94;40.15;95387.47;5056678;28;20177;-81
2022/08/26 10:13:24;;;;;;;11.52;6.35;;;;;;;28.07;39.63;95394.19;5056938;28;20184;-83
2022/08/26 10:16:16;;;;;;;8.07;6.40;;;;;;;28.28;39.63;95391.59;5053016;28;20707;-82
2022/08/26 10:18:46;;;;;;;8.25;6.32;;;;;;;28.00;38.79;95387.47;5056524;28;20707;-81
2022/08/26 10:21:16;;;;;;;10.35;5.88;;;;;;;28.13;38.04;95385.13;5039573;28;20225;-81
2022/08/26 10:23:47;;;;;;;9.70;5.95;;;;;;;28.18;38.83;95379.81;5051663;28;20185;-81
2022/08/26 10:26:18;;;;;;;7.25;6.45;;;;;;;28.41;39.01;95383.91;5066647;28;20284;-81
2022/08/26 10:28:51;;;;;;;8.35;6.10;;;;;;;28.33;39.02;95381.75;5039333;28;20181;-82
2022/08/26 10:31:19;;;;;;;10.43;6.38;;;;;;;28.29;38.29;95378.00;5056185;28;20667;-83
2022/08/26 10:33:45;;;;;;;11.38;6.82;;;;;;;27.79;39.13;95383.91;5073331;28;20189;-82
2022/08/26 10:39:03;;;;;;;9.65;6.60;;;;;;;27.78;39.65;95379.66;5054012;28;20544;-80
2022/08/26 10:41:31;;;;;;;10.07;7.03;;;;;;;27.95;39.69;95382.94;5045205;28;20656;-82
2022/08/26 10:43:58;;;;;;;11.43;7.22;;;;;;;27.97;39.46;95386.13;5051307;28;20195;-81
2022/08/26 10:46:28;;;;;;;7.32;6.63;;;;;;;28.14;38.84;95388.59;5036397;28;20242;-82
2022/08/26 10:49:01;;;;;;;7.43;5.85;;;;;;;28.90;37.63;95383.50;5054861;28;20529;-82
2022/08/26 10:51:30;;;;;;;8.13;6.38;;;;;;;28.78;37.96;95372.22;5036994;28;20185;-83
2022/08/26 10:54:01;;;;;;;8.88;6.40;;;;;;;28.92;37.61;95384.03;5056348;28;20253;-80
2022/08/26 10:56:33;;;;;;;14.82;6.60;;;;;;;29.07;37.09;95380.56;5038358;28;20210;-81
2022/08/26 10:59:29;;;;;;;8.30;7.07;;;;;;;29.23;37.27;95378.66;5074269;28;20226;-82
2022/08/26 11:02:14;;;;;;;11.43;6.82;;;;;;;29.06;37.20;95370.91;5072146;28;20189;-81
2022/08/26 11:04:51;;;;;;;10.25;7.00;;;;;;;29.53;36.44;95369.81;5036475;28;20181;-81
2022/08/26 11:07:42;;;;;;;11.10;6.93;;;;;;;29.45;36.54;95363.13;5050982;28;20187;-82
2022/08/26 11:10:20;;;;;;;8.38;6.22;;;;;;;29.35;36.10;95360.47;5053489;28;20203;-82
2022/08/26 11:12:48;;;;;;;12.85;7.13;;;;;;;28.97;36.89;95354.59;5068270;28;20187;-81
2022/08/26 11:15:19;;;;;;;11.95;6.43;;;;;;;28.57;37.46;95357.25;5052868;28;21607;-80
2022/08/26 11:17:44;;;;;;;11.32;6.75;;;;;;;28.45;38.02;95360.97;5073232;28;20274;-81
2022/08/26 11:20:22;;;;;;;10.00;6.80;;;;;;;28.58;37.17;95354.28;5050545;28;20237;-81
2022/08/26 11:22:48;;;;;;;8.90;6.95;;;;;;;28.68;37.37;95358.84;5050128;28;20184;-81
2022/08/26 11:25:15;;;;;;;7.05;6.18;;;;;;;28.26;37.65;95353.66;5054355;28;20292;-81
2022/08/26 11:27:40;;;;;;;8.32;6.63;;;;;;;28.69;36.26;95344.41;5053681;28;20181;-81
2022/08/26 11:30:11;;;;;;;10.87;6.33;;;;;;;29.16;36.28;95348.72;5072906;28;20196;-81
2022/08/26 11:32:37;;;;;;;11.23;6.68;;;;;;;29.22;35.68;95353.78;5053867;28;20942;-80
2022/08/26 11:35:18;;;;;;;8.68;6.30;;;;;;;29.72;35.03;95343.28;5071866;28;20241;-80
2022/08/26 11:37:47;;;;;;;8.57;6.20;;;;;;;30.12;34.17;95342.31;5073502;28;20180;-82
2022/08/26 11:40:21;;;;;;;8.50;6.18;;;;;;;30.51;33.69;95331.66;5054715;28;20580;-79
2022/08/26 11:42:55;;;;;;;7.95;6.55;;;;;;;30.21;33.57;95346.03;5053630;28;20553;-78
2022/08/26 11:45:25;;;;;;;11.23;6.93;;;;;;;30.09;33.32;95332.19;5034425;28;20292;-78
2022/08/26 11:47:50;;;;;;;10.00;6.20;;;;;;;30.57;32.88;95327.06;5035510;28;20268;-79
2022/08/26 11:50:25;;;;;;;9.50;5.78;;;;;;;30.48;32.60;95328.72;5037518;28;20648;-80